sensor_id;sensor_type;location;lat;lon;timestamp;P1;durP1;ratioP1;P2;durP2;ratioP2
42726;SDS011;28372;56.832;60.658;2022-08-25T00:01:29;14.27;;;9.15;;
42726;SDS011;28372;56.832;60.658;2022-08-25T00:03:59;12.82;;;8.75;;
42726;SDS011;28372;56.832;60.658;2022-08-25T00:06:28;15.43;;;9.50;;
42726;SDS011;28372;56.832;60.658;2022-08-25T00:08:56;14.88;;;10.32;;
42726;SDS011;28372;56.832;60.658;2022-08-25T00:11:29;14.60;;;9.30;;
42726;SDS011;28372;56.832;60.658;2022-08-25T00:14:00;16.88;;;9.15;;
42726;SDS011;28372;56.832;60.658;2022-08-25T00:16:30;13.68;;;8.93;;
42726;SDS011;28372;56.832;60.658;2022-08-25T00:19:00;14.75;;;8.98;;
42726;SDS011;28372;56.832;60.658;2022-08-25T00:21:31;15.02;;;9.35;;
42726;SDS011;28372;56.832;60.658;2022-08-25T00:23:59;14.15;;;8.90;;
42726;SDS011;28372;56.832;60.658;2022-08-25T00:26:28;14.15;;;8.93;;
42726;SDS011;28372;56.832;60.658;2022-08-25T00:28:56;12.95;;;9.15;;
42726;SDS011;28372;56.832;60.658;2022-08-25T00:31:28;13.82;;;9.00;;
42726;SDS011;28372;56.832;60.658;2022-08-25T00:34:06;15.18;;;9.07;;
42726;SDS011;28372;56.832;60.658;2022-08-25T00:36:35;13.18;;;8.57;;
42726;SDS011;28372;56.832;60.658;2022-08-25T00:39:05;15.88;;;9.20;;
42726;SDS011;28372;56.832;60.658;2022-08-25T00:41:34;13.40;;;9.35;;
42726;SDS011;28372;56.832;60.658;2022-08-25T00:44:03;13.27;;;9.07;;
42726;SDS011;28372;56.832;60.658;2022-08-25T00:46:35;15.77;;;8.98;;
42726;SDS011;28372;56.832;60.658;2022-08-25T00:49:26;16.05;;;9.43;;
42726;SDS011;28372;56.832;60.658;2022-08-25T00:57:41;12.32;;;8.65;;
42726;SDS011;28372;56.832;60.658;2022-08-25T01:00:16;11.77;;;9.00;;
42726;SDS011;28372;56.832;60.658;2022-08-25T01:02:46;13.25;;;8.25;;
42726;SDS011;28372;56.832;60.658;2022-08-25T01:05:14;13.38;;;9.02;;
42726;SDS011;28372;56.832;60.658;2022-08-25T01:07:41;16.40;;;9.50;;
42726;SDS011;28372;56.832;60.658;2022-08-25T01:10:10;14.32;;;8.70;;
42726;SDS011;28372;56.832;60.658;2022-08-25T01:12:39;13.50;;;8.75;;
42726;SDS011;28372;56.832;60.658;2022-08-25T01:15:08;16.15;;;9.00;;
42726;SDS011;28372;56.832;60.658;2022-08-25T01:17:48;14.18;;;9.00;;
42726;SDS011;28372;56.832;60.658;2022-08-25T01:20:18;15.00;;;8.77;;
42726;SDS011;28372;56.832;60.658;2022-08-25T01:22:53;13.95;;;8.38;;
42726;SDS011;28372;56.832;60.658;2022-08-25T01:28:19;12.30;;;8.20;;
42726;SDS011;28372;56.832;60.658;2022-08-25T01:30:47;16.92;;;8.77;;
42726;SDS011;28372;56.832;60.658;2022-08-25T01:33:15;14.60;;;9.32;;
42726;SDS011;28372;56.832;60.658;2022-08-25T01:35:45;17.02;;;9.35;;
42726;SDS011;28372;56.832;60.658;2022-08-25T01:38:13;12.85;;;8.35;;
42726;SDS011;28372;56.832;60.658;2022-08-25T01:40:41;13.63;;;8.80;;
42726;SDS011;28372;56.832;60.658;2022-08-25T01:45:37;15.23;;;9.02;;
42726;SDS011;28372;56.832;60.658;2022-08-25T01:48:07;15.48;;;8.75;;
42726;SDS011;28372;56.832;60.658;2022-08-25T01:50:35;13.98;;;8.73;;
42726;SDS011;28372;56.832;60.658;2022-08-25T01:53:06;12.95;;;8.55;;
42726;SDS011;28372;56.832;60.658;2022-08-25T01:55:46;11.73;;;8.25;;
42726;SDS011;28372;56.832;60.658;2022-08-25T01:58:23;14.27;;;8.85;;
42726;SDS011;28372;56.832;60.658;2022-08-25T02:00:53;14.93;;;8.52;;
42726;SDS011;28372;56.832;60.658;2022-08-25T02:03:23;13.13;;;8.55;;
42726;SDS011;28372;56.832;60.658;2022-08-25T02:05:55;14.25;;;8.50;;
42726;SDS011;28372;56.832;60.658;2022-08-25T02:08:24;13.73;;;8.55;;
42726;SDS011;28372;56.832;60.658;2022-08-25T02:10:52;16.95;;;8.70;;
42726;SDS011;28372;56.832;60.658;2022-08-25T02:13:22;18.48;;;9.60;;
42726;SDS011;28372;56.832;60.658;2022-08-25T02:15:57;15.05;;;9.13;;
42726;SDS011;28372;56.832;60.658;2022-08-25T02:18:26;15.90;;;8.95;;
42726;SDS011;28372;56.832;60.658;2022-08-25T02:20:54;14.20;;;8.60;;
42726;SDS011;28372;56.832;60.658;2022-08-25T02:23:22;14.25;;;8.35;;
42726;SDS011;28372;56.832;60.658;2022-08-25T02:25:50;14.68;;;8.80;;
42726;SDS011;28372;56.832;60.658;2022-08-25T02:28:17;13.52;;;8.95;;
42726;SDS011;28372;56.832;60.658;2022-08-25T02:30:45;13.95;;;8.27;;
42726;SDS011;28372;56.832;60.658;2022-08-25T02:33:14;15.05;;;8.68;;
42726;SDS011;28372;56.832;60.658;2022-08-25T02:35:41;13.30;;;8.75;;
42726;SDS011;28372;56.832;60.658;2022-08-25T02:38:09;14.25;;;8.32;;
42726;SDS011;28372;56.832;60.658;2022-08-25T02:40:36;11.52;;;7.82;;
42726;SDS011;28372;56.832;60.658;2022-08-25T02:43:04;15.27;;;8.18;;
42726;SDS011;28372;56.832;60.658;2022-08-25T02:45:32;14.40;;;8.52;;
42726;SDS011;28372;56.832;60.658;2022-08-25T02:47:59;14.52;;;8.45;;
42726;SDS011;28372;56.832;60.658;2022-08-25T02:50:28;13.63;;;8.50;;
42726;SDS011;28372;56.832;60.658;2022-08-25T02:52:56;13.40;;;7.75;;
42726;SDS011;28372;56.832;60.658;2022-08-25T02:55:23;14.73;;;7.85;;
42726;SDS011;28372;56.832;60.658;2022-08-25T02:57:51;16.73;;;8.50;;
42726;SDS011;28372;56.832;60.658;2022-08-25T03:00:18;14.45;;;8.55;;
42726;SDS011;28372;56.832;60.658;2022-08-25T03:02:48;14.40;;;8.35;;
42726;SDS011;28372;56.832;60.658;2022-08-25T03:05:16;12.20;;;7.63;;
42726;SDS011;28372;56.832;60.658;2022-08-25T03:07:44;11.32;;;7.97;;
42726;SDS011;28372;56.832;60.658;2022-08-25T03:10:13;15.10;;;8.05;;
42726;SDS011;28372;56.832;60.658;2022-08-25T03:12:43;14.85;;;8.27;;
42726;SDS011;28372;56.832;60.658;2022-08-25T03:15:12;14.23;;;8.43;;
42726;SDS011;28372;56.832;60.658;2022-08-25T03:17:45;13.65;;;7.82;;
42726;SDS011;28372;56.832;60.658;2022-08-25T03:20:16;13.40;;;8.25;;
42726;SDS011;28372;56.832;60.658;2022-08-25T03:22:44;12.25;;;7.72;;
42726;SDS011;28372;56.832;60.658;2022-08-25T03:25:12;13.82;;;8.02;;
42726;SDS011;28372;56.832;60.658;2022-08-25T03:27:59;12.45;;;8.27;;
42726;SDS011;28372;56.832;60.658;2022-08-25T03:30:27;11.70;;;8.30;;
42726;SDS011;28372;56.832;60.658;2022-08-25T03:32:55;10.65;;;7.57;;
42726;SDS011;28372;56.832;60.658;2022-08-25T03:35:22;13.60;;;8.05;;
42726;SDS011;28372;56.832;60.658;2022-08-25T03:37:53;12.43;;;7.65;;
42726;SDS011;28372;56.832;60.658;2022-08-25T03:40:22;11.57;;;7.57;;
42726;SDS011;28372;56.832;60.658;2022-08-25T03:42:50;14.52;;;8.15;;
42726;SDS011;28372;56.832;60.658;2022-08-25T03:45:18;10.80;;;7.88;;
42726;SDS011;28372;56.832;60.658;2022-08-25T03:47:46;11.85;;;7.97;;
42726;SDS011;28372;56.832;60.658;2022-08-25T03:50:15;11.23;;;7.57;;
42726;SDS011;28372;56.832;60.658;2022-08-25T03:52:49;11.75;;;7.78;;
42726;SDS011;28372;56.832;60.658;2022-08-25T03:55:21;13.73;;;7.95;;
42726;SDS011;28372;56.832;60.658;2022-08-25T03:57:51;12.70;;;7.65;;
42726;SDS011;28372;56.832;60.658;2022-08-25T04:00:21;13.38;;;7.68;;
42726;SDS011;28372;56.832;60.658;2022-08-25T04:02:49;13.48;;;7.80;;
42726;SDS011;28372;56.832;60.658;2022-08-25T04:05:16;11.90;;;7.90;;
42726;SDS011;28372;56.832;60.658;2022-08-25T04:07:46;12.73;;;7.85;;
42726;SDS011;28372;56.832;60.658;2022-08-25T04:10:13;10.40;;;7.45;;
42726;SDS011;28372;56.832;60.658;2022-08-25T04:12:41;12.60;;;7.85;;
42726;SDS011;28372;56.832;60.658;2022-08-25T04:15:09;14.93;;;7.63;;
42726;SDS011;28372;56.832;60.658;2022-08-25T04:17:37;11.98;;;7.78;;
42726;SDS011;28372;56.832;60.658;2022-08-25T04:20:06;17.55;;;8.07;;
42726;SDS011;28372;56.832;60.658;2022-08-25T04:22:39;13.27;;;7.95;;
42726;SDS011;28372;56.832;60.658;2022-08-25T04:25:10;11.30;;;7.72;;
42726;SDS011;28372;56.832;60.658;2022-08-25T04:27:38;13.40;;;8.00;;
42726;SDS011;28372;56.832;60.658;2022-08-25T04:30:06;10.23;;;7.20;;
42726;SDS011;28372;56.832;60.658;2022-08-25T04:32:34;12.90;;;7.68;;
42726;SDS011;28372;56.832;60.658;2022-08-25T04:35:03;11.27;;;7.72;;
42726;SDS011;28372;56.832;60.658;2022-08-25T04:37:31;12.75;;;7.50;;
42726;SDS011;28372;56.832;60.658;2022-08-25T04:39:59;12.35;;;7.70;;
42726;SDS011;28372;56.832;60.658;2022-08-25T04:42:26;11.07;;;7.80;;
42726;SDS011;28372;56.832;60.658;2022-08-25T04:44:54;11.35;;;7.53;;
42726;SDS011;28372;56.832;60.658;2022-08-25T04:47:22;11.98;;;7.68;;
42726;SDS011;28372;56.832;60.658;2022-08-25T04:49:49;10.75;;;7.28;;
42726;SDS011;28372;56.832;60.658;2022-08-25T04:52:17;13.73;;;7.78;;
42726;SDS011;28372;56.832;60.658;2022-08-25T04:54:45;10.55;;;7.28;;
42726;SDS011;28372;56.832;60.658;2022-08-25T04:57:12;11.10;;;7.30;;
42726;SDS011;28372;56.832;60.658;2022-08-25T04:59:40;10.98;;;7.35;;
42726;SDS011;28372;56.832;60.658;2022-08-25T05:02:07;10.75;;;7.07;;
42726;SDS011;28372;56.832;60.658;2022-08-25T05:04:35;10.73;;;6.80;;
42726;SDS011;28372;56.832;60.658;2022-08-25T05:07:03;11.27;;;6.70;;
42726;SDS011;28372;56.832;60.658;2022-08-25T05:09:31;10.73;;;7.32;;
42726;SDS011;28372;56.832;60.658;2022-08-25T05:12:00;11.27;;;7.38;;
42726;SDS011;28372;56.832;60.658;2022-08-25T05:14:29;9.50;;;6.88;;
42726;SDS011;28372;56.832;60.658;2022-08-25T05:16:57;11.50;;;7.05;;
42726;SDS011;28372;56.832;60.658;2022-08-25T05:19:25;13.07;;;7.28;;
42726;SDS011;28372;56.832;60.658;2022-08-25T05:21:53;11.32;;;7.47;;
42726;SDS011;28372;56.832;60.658;2022-08-25T05:24:24;10.85;;;7.00;;
42726;SDS011;28372;56.832;60.658;2022-08-25T05:26:52;9.68;;;7.38;;
42726;SDS011;28372;56.832;60.658;2022-08-25T05:29:20;8.50;;;7.00;;
42726;SDS011;28372;56.832;60.658;2022-08-25T05:31:47;9.07;;;6.63;;
42726;SDS011;28372;56.832;60.658;2022-08-25T05:34:17;10.55;;;6.60;;
42726;SDS011;28372;56.832;60.658;2022-08-25T05:36:45;8.50;;;6.50;;
42726;SDS011;28372;56.832;60.658;2022-08-25T05:39:13;9.52;;;7.05;;
42726;SDS011;28372;56.832;60.658;2022-08-25T05:41:41;8.95;;;7.03;;
42726;SDS011;28372;56.832;60.658;2022-08-25T05:44:09;9.50;;;6.93;;
42726;SDS011;28372;56.832;60.658;2022-08-25T05:46:38;10.85;;;7.10;;
42726;SDS011;28372;56.832;60.658;2022-08-25T05:49:06;11.90;;;6.93;;
42726;SDS011;28372;56.832;60.658;2022-08-25T05:51:33;9.90;;;6.90;;
42726;SDS011;28372;56.832;60.658;2022-08-25T05:54:01;8.23;;;6.55;;
42726;SDS011;28372;56.832;60.658;2022-08-25T05:56:29;9.48;;;6.53;;
42726;SDS011;28372;56.832;60.658;2022-08-25T05:58:57;8.50;;;6.57;;
42726;SDS011;28372;56.832;60.658;2022-08-25T06:01:25;10.02;;;6.65;;
42726;SDS011;28372;56.832;60.658;2022-08-25T06:04:16;8.80;;;6.35;;
42726;SDS011;28372;56.832;60.658;2022-08-25T06:06:44;8.88;;;6.30;;
42726;SDS011;28372;56.832;60.658;2022-08-25T06:09:11;9.13;;;6.35;;
42726;SDS011;28372;56.832;60.658;2022-08-25T06:11:39;8.40;;;6.32;;
42726;SDS011;28372;56.832;60.658;2022-08-25T06:14:07;8.93;;;6.30;;
42726;SDS011;28372;56.832;60.658;2022-08-25T06:16:36;10.93;;;6.03;;
42726;SDS011;28372;56.832;60.658;2022-08-25T06:19:05;7.85;;;6.40;;
42726;SDS011;28372;56.832;60.658;2022-08-25T06:21:34;7.40;;;5.78;;
42726;SDS011;28372;56.832;60.658;2022-08-25T06:24:05;8.68;;;6.07;;
42726;SDS011;28372;56.832;60.658;2022-08-25T06:26:40;8.13;;;6.15;;
42726;SDS011;28372;56.832;60.658;2022-08-25T06:29:07;8.60;;;6.32;;
42726;SDS011;28372;56.832;60.658;2022-08-25T06:31:35;8.27;;;6.00;;
42726;SDS011;28372;56.832;60.658;2022-08-25T06:34:02;10.55;;;6.10;;
42726;SDS011;28372;56.832;60.658;2022-08-25T06:36:30;8.80;;;5.97;;
42726;SDS011;28372;56.832;60.658;2022-08-25T06:38:58;7.55;;;5.95;;
42726;SDS011;28372;56.832;60.658;2022-08-25T06:41:25;8.15;;;5.78;;
42726;SDS011;28372;56.832;60.658;2022-08-25T06:44:03;7.90;;;6.03;;
42726;SDS011;28372;56.832;60.658;2022-08-25T06:46:31;8.23;;;5.88;;
42726;SDS011;28372;56.832;60.658;2022-08-25T06:49:05;9.23;;;5.82;;
42726;SDS011;28372;56.832;60.658;2022-08-25T06:51:34;8.93;;;5.70;;
42726;SDS011;28372;56.832;60.658;2022-08-25T06:54:02;9.35;;;5.75;;
42726;SDS011;28372;56.832;60.658;2022-08-25T06:56:31;7.20;;;5.68;;
42726;SDS011;28372;56.832;60.658;2022-08-25T06:59:00;8.15;;;5.35;;
42726;SDS011;28372;56.832;60.658;2022-08-25T07:01:30;7.82;;;5.30;;
42726;SDS011;28372;56.832;60.658;2022-08-25T07:04:00;10.88;;;5.82;;
42726;SDS011;28372;56.832;60.658;2022-08-25T07:06:32;8.13;;;5.85;;
42726;SDS011;28372;56.832;60.658;2022-08-25T07:09:02;7.18;;;5.78;;
42726;SDS011;28372;56.832;60.658;2022-08-25T07:11:31;6.70;;;5.70;;
42726;SDS011;28372;56.832;60.658;2022-08-25T07:14:00;7.20;;;5.50;;
42726;SDS011;28372;56.832;60.658;2022-08-25T07:16:30;7.57;;;5.72;;
42726;SDS011;28372;56.832;60.658;2022-08-25T07:18:58;6.32;;;5.13;;
42726;SDS011;28372;56.832;60.658;2022-08-25T07:21:28;8.95;;;5.47;;
42726;SDS011;28372;56.832;60.658;2022-08-25T07:24:04;10.35;;;5.75;;
42726;SDS011;28372;56.832;60.658;2022-08-25T07:26:36;8.27;;;5.93;;
42726;SDS011;28372;56.832;60.658;2022-08-25T07:29:11;8.73;;;5.50;;
42726;SDS011;28372;56.832;60.658;2022-08-25T07:31:43;9.35;;;5.28;;
42726;SDS011;28372;56.832;60.658;2022-08-25T07:34:11;8.00;;;5.63;;
42726;SDS011;28372;56.832;60.658;2022-08-25T07:36:57;8.82;;;5.50;;
42726;SDS011;28372;56.832;60.658;2022-08-25T07:39:25;9.63;;;5.72;;
42726;SDS011;28372;56.832;60.658;2022-08-25T07:41:54;6.50;;;5.50;;
42726;SDS011;28372;56.832;60.658;2022-08-25T07:44:22;7.18;;;5.38;;
42726;SDS011;28372;56.832;60.658;2022-08-25T07:46:54;7.40;;;5.35;;
42726;SDS011;28372;56.832;60.658;2022-08-25T07:49:23;7.10;;;5.47;;
42726;SDS011;28372;56.832;60.658;2022-08-25T07:52:01;6.47;;;5.30;;
42726;SDS011;28372;56.832;60.658;2022-08-25T07:54:33;6.53;;;5.00;;
42726;SDS011;28372;56.832;60.658;2022-08-25T07:59:39;7.32;;;5.55;;
42726;SDS011;28372;56.832;60.658;2022-08-25T08:02:08;7.57;;;5.45;;
42726;SDS011;28372;56.832;60.658;2022-08-25T08:04:49;7.78;;;5.50;;
42726;SDS011;28372;56.832;60.658;2022-08-25T08:07:19;7.75;;;5.60;;
42726;SDS011;28372;56.832;60.658;2022-08-25T08:10:09;9.63;;;6.10;;
42726;SDS011;28372;56.832;60.658;2022-08-25T08:12:58;8.77;;;5.80;;
42726;SDS011;28372;56.832;60.658;2022-08-25T08:15:26;7.68;;;5.43;;
42726;SDS011;28372;56.832;60.658;2022-08-25T08:17:56;8.70;;;5.50;;
42726;SDS011;28372;56.832;60.658;2022-08-25T08:20:25;7.47;;;5.50;;
42726;SDS011;28372;56.832;60.658;2022-08-25T08:22:54;7.85;;;5.45;;
42726;SDS011;28372;56.832;60.658;2022-08-25T08:25:21;6.68;;;5.32;;
42726;SDS011;28372;56.832;60.658;2022-08-25T08:27:54;7.07;;;5.60;;
42726;SDS011;28372;56.832;60.658;2022-08-25T08:30:22;8.02;;;5.30;;
42726;SDS011;28372;56.832;60.658;2022-08-25T08:32:52;6.72;;;5.18;;
42726;SDS011;28372;56.832;60.658;2022-08-25T08:35:38;9.05;;;5.45;;
42726;SDS011;28372;56.832;60.658;2022-08-25T08:38:07;8.18;;;5.32;;
42726;SDS011;28372;56.832;60.658;2022-08-25T08:43:53;9.93;;;5.82;;
42726;SDS011;28372;56.832;60.658;2022-08-25T08:50:10;8.52;;;5.68;;
42726;SDS011;28372;56.832;60.658;2022-08-25T08:52:29;9.30;;;6.10;;
42726;SDS011;28372;56.832;60.658;2022-08-25T08:55:30;9.65;;;5.95;;
42726;SDS011;28372;56.832;60.658;2022-08-25T08:58:04;7.32;;;5.53;;
42726;SDS011;28372;56.832;60.658;2022-08-25T09:00:53;8.57;;;5.93;;
42726;SDS011;28372;56.832;60.658;2022-08-25T09:03:32;7.93;;;5.50;;
42726;SDS011;28372;56.832;60.658;2022-08-25T09:06:29;12.30;;;6.70;;
42726;SDS011;28372;56.832;60.658;2022-08-25T09:09:03;7.88;;;6.15;;
42726;SDS011;28372;56.832;60.658;2022-08-25T09:14:51;10.55;;;6.03;;
42726;SDS011;28372;56.832;60.658;2022-08-25T09:20:53;12.68;;;5.72;;
42726;SDS011;28372;56.832;60.658;2022-08-25T09:26:33;9.93;;;3.80;;
42726;SDS011;28372;56.832;60.658;2022-08-25T09:29:09;9.88;;;4.05;;
42726;SDS011;28372;56.832;60.658;2022-08-25T09:31:47;9.10;;;3.70;;
42726;SDS011;28372;56.832;60.658;2022-08-25T09:34:19;8.90;;;4.18;;
42726;SDS011;28372;56.832;60.658;2022-08-25T09:36:49;7.70;;;3.88;;
42726;SDS011;28372;56.832;60.658;2022-08-25T09:39:19;8.65;;;4.10;;
42726;SDS011;28372;56.832;60.658;2022-08-25T09:41:50;10.65;;;4.10;;
42726;SDS011;28372;56.832;60.658;2022-08-25T09:46:59;10.50;;;4.30;;
42726;SDS011;28372;56.832;60.658;2022-08-25T09:49:40;9.60;;;4.70;;
42726;SDS011;28372;56.832;60.658;2022-08-25T09:52:37;12.60;;;5.13;;
42726;SDS011;28372;56.832;60.658;2022-08-25T10:06:00;10.05;;;5.97;;
42726;SDS011;28372;56.832;60.658;2022-08-25T10:11:31;14.00;;;6.15;;
42726;SDS011;28372;56.832;60.658;2022-08-25T10:14:06;10.77;;;5.90;;
42726;SDS011;28372;56.832;60.658;2022-08-25T10:20:17;10.73;;;6.20;;
42726;SDS011;28372;56.832;60.658;2022-08-25T10:22:51;10.20;;;6.50;;
42726;SDS011;28372;56.832;60.658;2022-08-25T10:25:39;10.27;;;6.30;;
42726;SDS011;28372;56.832;60.658;2022-08-25T10:31:23;11.13;;;6.15;;
42726;SDS011;28372;56.832;60.658;2022-08-25T10:34:01;7.90;;;6.15;;
42726;SDS011;28372;56.832;60.658;2022-08-25T10:40:11;10.02;;;5.55;;
42726;SDS011;28372;56.832;60.658;2022-08-25T10:45:26;8.63;;;5.07;;
42726;SDS011;28372;56.832;60.658;2022-08-25T10:50:55;9.35;;;5.30;;
42726;SDS011;28372;56.832;60.658;2022-08-25T10:56:12;8.20;;;4.65;;
42726;SDS011;28372;56.832;60.658;2022-08-25T11:09:52;8.43;;;5.57;;
42726;SDS011;28372;56.832;60.658;2022-08-25T11:12:28;10.73;;;6.10;;
42726;SDS011;28372;56.832;60.658;2022-08-25T11:15:06;7.70;;;5.80;;
42726;SDS011;28372;56.832;60.658;2022-08-25T11:20:20;9.48;;;6.05;;
42726;SDS011;28372;56.832;60.658;2022-08-25T11:23:00;7.28;;;5.93;;
42726;SDS011;28372;56.832;60.658;2022-08-25T11:25:34;7.82;;;5.88;;
42726;SDS011;28372;56.832;60.658;2022-08-25T11:30:38;9.38;;;5.97;;
42726;SDS011;28372;56.832;60.658;2022-08-25T11:33:06;8.10;;;5.75;;
42726;SDS011;28372;56.832;60.658;2022-08-25T11:35:42;9.90;;;5.68;;
42726;SDS011;28372;56.832;60.658;2022-08-25T11:47:07;9.60;;;5.82;;
42726;SDS011;28372;56.832;60.658;2022-08-25T11:49:57;11.38;;;5.30;;
42726;SDS011;28372;56.832;60.658;2022-08-25T11:57:50;7.68;;;4.72;;
42726;SDS011;28372;56.832;60.658;2022-08-25T12:00:36;8.52;;;5.50;;
42726;SDS011;28372;56.832;60.658;2022-08-25T12:22:40;7.75;;;5.70;;
42726;SDS011;28372;56.832;60.658;2022-08-25T12:38:44;10.30;;;6.00;;
42726;SDS011;28372;56.832;60.658;2022-08-25T12:41:27;10.27;;;6.13;;
42726;SDS011;28372;56.832;60.658;2022-08-25T12:44:13;9.85;;;7.00;;
42726;SDS011;28372;56.832;60.658;2022-08-25T12:49:50;10.23;;;6.55;;
42726;SDS011;28372;56.832;60.658;2022-08-25T12:52:21;17.90;;;7.82;;
42726;SDS011;28372;56.832;60.658;2022-08-25T12:54:57;15.55;;;7.60;;
42726;SDS011;28372;56.832;60.658;2022-08-25T12:57:42;13.95;;;4.97;;
42726;SDS011;28372;56.832;60.658;2022-08-25T13:00:18;8.50;;;3.87;;
42726;SDS011;28372;56.832;60.658;2022-08-25T13:14:27;9.57;;;5.50;;
42726;SDS011;28372;56.832;60.658;2022-08-25T13:17:04;7.97;;;5.50;;
42726;SDS011;28372;56.832;60.658;2022-08-25T13:19:35;9.25;;;5.30;;
42726;SDS011;28372;56.832;60.658;2022-08-25T13:22:10;10.48;;;5.53;;
42726;SDS011;28372;56.832;60.658;2022-08-25T13:24:42;10.32;;;4.03;;
42726;SDS011;28372;56.832;60.658;2022-08-25T13:27:20;16.20;;;4.72;;
42726;SDS011;28372;56.832;60.658;2022-08-25T13:29:53;12.65;;;4.90;;
42726;SDS011;28372;56.832;60.658;2022-08-25T13:32:30;8.27;;;4.65;;
42726;SDS011;28372;56.832;60.658;2022-08-25T13:37:46;7.20;;;4.88;;
42726;SDS011;28372;56.832;60.658;2022-08-25T13:40:25;7.22;;;5.07;;
42726;SDS011;28372;56.832;60.658;2022-08-25T13:43:01;8.98;;;5.18;;
42726;SDS011;28372;56.832;60.658;2022-08-25T13:45:33;8.77;;;4.77;;
42726;SDS011;28372;56.832;60.658;2022-08-25T13:48:11;10.98;;;5.10;;
42726;SDS011;28372;56.832;60.658;2022-08-25T13:50:48;11.85;;;6.00;;
42726;SDS011;28372;56.832;60.658;2022-08-25T13:53:22;12.35;;;6.60;;
42726;SDS011;28372;56.832;60.658;2022-08-25T13:55:56;10.18;;;5.82;;
42726;SDS011;28372;56.832;60.658;2022-08-25T13:58:26;10.20;;;6.40;;
42726;SDS011;28372;56.832;60.658;2022-08-25T14:01:21;8.50;;;5.38;;
42726;SDS011;28372;56.832;60.658;2022-08-25T14:04:57;8.20;;;5.07;;
42726;SDS011;28372;56.832;60.658;2022-08-25T14:12:41;8.88;;;5.68;;
42726;SDS011;28372;56.832;60.658;2022-08-25T14:17:44;10.32;;;6.25;;
42726;SDS011;28372;56.832;60.658;2022-08-25T14:20:19;10.93;;;6.60;;
42726;SDS011;28372;56.832;60.658;2022-08-25T14:22:59;15.57;;;9.32;;
42726;SDS011;28372;56.832;60.658;2022-08-25T14:25:44;12.70;;;7.93;;
42726;SDS011;28372;56.832;60.658;2022-08-25T14:28:17;11.77;;;6.97;;
42726;SDS011;28372;56.832;60.658;2022-08-25T14:30:49;11.10;;;7.25;;
42726;SDS011;28372;56.832;60.658;2022-08-25T14:33:22;16.48;;;7.55;;
42726;SDS011;28372;56.832;60.658;2022-08-25T14:35:56;13.43;;;7.15;;
42726;SDS011;28372;56.832;60.658;2022-08-25T14:38:25;12.05;;;7.60;;
42726;SDS011;28372;56.832;60.658;2022-08-25T14:40:53;12.73;;;7.25;;
42726;SDS011;28372;56.832;60.658;2022-08-25T14:43:25;12.82;;;6.85;;
42726;SDS011;28372;56.832;60.658;2022-08-25T14:45:58;11.80;;;7.00;;
42726;SDS011;28372;56.832;60.658;2022-08-25T14:48:40;13.80;;;6.93;;
42726;SDS011;28372;56.832;60.658;2022-08-25T14:51:11;12.80;;;6.97;;
42726;SDS011;28372;56.832;60.658;2022-08-25T14:53:41;12.15;;;7.28;;
42726;SDS011;28372;56.832;60.658;2022-08-25T14:56:09;11.40;;;7.13;;
42726;SDS011;28372;56.832;60.658;2022-08-25T14:58:40;10.70;;;6.90;;
42726;SDS011;28372;56.832;60.658;2022-08-25T15:01:17;14.18;;;8.18;;
42726;SDS011;28372;56.832;60.658;2022-08-25T15:03:57;10.50;;;7.18;;
42726;SDS011;28372;56.832;60.658;2022-08-25T15:06:30;12.00;;;7.57;;
42726;SDS011;28372;56.832;60.658;2022-08-25T15:08:59;13.05;;;9.13;;
42726;SDS011;28372;56.832;60.658;2022-08-25T15:11:41;11.98;;;7.78;;
42726;SDS011;28372;56.832;60.658;2022-08-25T15:14:17;11.27;;;7.65;;
42726;SDS011;28372;56.832;60.658;2022-08-25T15:16:58;12.82;;;8.10;;
42726;SDS011;28372;56.832;60.658;2022-08-25T15:19:28;14.23;;;7.70;;
42726;SDS011;28372;56.832;60.658;2022-08-25T15:21:55;12.90;;;8.32;;
42726;SDS011;28372;56.832;60.658;2022-08-25T15:24:25;13.63;;;8.20;;
42726;SDS011;28372;56.832;60.658;2022-08-25T15:26:56;17.00;;;9.40;;
42726;SDS011;28372;56.832;60.658;2022-08-25T15:29:25;16.33;;;9.77;;
42726;SDS011;28372;56.832;60.658;2022-08-25T15:31:56;14.20;;;8.57;;
42726;SDS011;28372;56.832;60.658;2022-08-25T15:34:26;16.67;;;8.90;;
42726;SDS011;28372;56.832;60.658;2022-08-25T15:36:57;16.20;;;9.35;;
42726;SDS011;28372;56.832;60.658;2022-08-25T15:39:32;15.55;;;9.48;;
42726;SDS011;28372;56.832;60.658;2022-08-25T15:42:00;18.55;;;9.60;;
42726;SDS011;28372;56.832;60.658;2022-08-25T15:44:29;19.77;;;9.45;;
42726;SDS011;28372;56.832;60.658;2022-08-25T15:46:58;17.15;;;9.02;;
42726;SDS011;28372;56.832;60.658;2022-08-25T15:49:26;19.08;;;9.32;;
42726;SDS011;28372;56.832;60.658;2022-08-25T15:51:56;17.48;;;10.25;;
42726;SDS011;28372;56.832;60.658;2022-08-25T15:54:25;18.75;;;9.85;;
42726;SDS011;28372;56.832;60.658;2022-08-25T15:56:56;14.48;;;10.05;;
42726;SDS011;28372;56.832;60.658;2022-08-25T15:59:26;17.75;;;11.07;;
42726;SDS011;28372;56.832;60.658;2022-08-25T16:01:54;18.48;;;9.48;;
42726;SDS011;28372;56.832;60.658;2022-08-25T16:04:22;14.68;;;8.98;;
42726;SDS011;28372;56.832;60.658;2022-08-25T16:06:51;14.40;;;8.20;;
42726;SDS011;28372;56.832;60.658;2022-08-25T16:09:21;14.98;;;8.90;;
42726;SDS011;28372;56.832;60.658;2022-08-25T16:11:50;12.10;;;8.23;;
42726;SDS011;28372;56.832;60.658;2022-08-25T16:14:24;15.43;;;8.45;;
42726;SDS011;28372;56.832;60.658;2022-08-25T16:16:53;14.32;;;8.25;;
42726;SDS011;28372;56.832;60.658;2022-08-25T16:19:26;16.83;;;8.05;;
42726;SDS011;28372;56.832;60.658;2022-08-25T16:21:54;12.82;;;7.85;;
42726;SDS011;28372;56.832;60.658;2022-08-25T16:24:23;18.63;;;9.75;;
42726;SDS011;28372;56.832;60.658;2022-08-25T16:26:52;17.40;;;8.88;;
42726;SDS011;28372;56.832;60.658;2022-08-25T16:29:22;15.35;;;9.27;;
42726;SDS011;28372;56.832;60.658;2022-08-25T16:31:49;17.13;;;9.18;;
42726;SDS011;28372;56.832;60.658;2022-08-25T16:34:19;20.15;;;9.50;;
42726;SDS011;28372;56.832;60.658;2022-08-25T16:36:46;17.00;;;9.30;;
42726;SDS011;28372;56.832;60.658;2022-08-25T16:39:17;17.02;;;9.18;;
42726;SDS011;28372;56.832;60.658;2022-08-25T16:41:46;18.05;;;8.65;;
42726;SDS011;28372;56.832;60.658;2022-08-25T16:44:17;15.32;;;8.68;;
42726;SDS011;28372;56.832;60.658;2022-08-25T16:46:48;17.40;;;8.02;;
42726;SDS011;28372;56.832;60.658;2022-08-25T16:49:21;16.42;;;8.77;;
42726;SDS011;28372;56.832;60.658;2022-08-25T16:51:50;18.30;;;9.88;;
42726;SDS011;28372;56.832;60.658;2022-08-25T16:57:10;17.38;;;9.70;;
42726;SDS011;28372;56.832;60.658;2022-08-25T16:59:38;15.80;;;9.85;;
42726;SDS011;28372;56.832;60.658;2022-08-25T17:02:05;17.83;;;10.95;;
42726;SDS011;28372;56.832;60.658;2022-08-25T17:04:33;21.17;;;12.02;;
42726;SDS011;28372;56.832;60.658;2022-08-25T17:07:03;24.73;;;15.18;;
42726;SDS011;28372;56.832;60.658;2022-08-25T17:09:30;24.25;;;14.98;;
42726;SDS011;28372;56.832;60.658;2022-08-25T17:11:58;54.47;;;35.10;;
42726;SDS011;28372;56.832;60.658;2022-08-25T17:14:25;20.77;;;13.57;;
42726;SDS011;28372;56.832;60.658;2022-08-25T17:16:53;25.85;;;13.68;;
42726;SDS011;28372;56.832;60.658;2022-08-25T17:19:21;22.83;;;14.10;;
42726;SDS011;28372;56.832;60.658;2022-08-25T17:21:50;21.52;;;12.60;;
42726;SDS011;28372;56.832;60.658;2022-08-25T17:24:21;21.70;;;12.80;;
42726;SDS011;28372;56.832;60.658;2022-08-25T17:26:57;23.67;;;12.82;;
42726;SDS011;28372;56.832;60.658;2022-08-25T17:29:27;21.23;;;11.27;;